Time;durP1;ratioP1;P1;durP2;ratioP2;P2;SDS_P1;SDS_P2;PMS_P1;PMS_P2;Temp;Humidity;BMP_temperature;BMP_pressure;BME280_temperature;BME280_humidity;BME280_pressure;Samples;Min_cycle;Max_cycle;Signal;HPM_P1;HPM_P2
2023/03/27 00:00:20;;;;;;;7.80;1.50;;;;;;;3.15;100.00;101134.94;4923955;29;20046;-81
2023/03/27 00:02:48;;;;;;;17.15;1.88;;;;;;;3.10;100.00;101110.81;4892996;29;20492;-80
2023/03/27 00:05:20;;;;;;;14.07;1.65;;;;;;;3.09;100.00;101133.38;4925046;29;20035;-79
2023/03/27 00:07:47;;;;;;;36.17;2.33;;;;;;;3.09;100.00;101137.91;4927590;29;20038;-79
2023/03/27 00:10:15;;;;;;;16.33;1.80;;;;;;;2.93;100.00;101122.34;4943128;29;20034;-79
2023/03/27 00:12:43;;;;;;;19.80;1.85;;;;;;;3.09;100.00;101146.91;4911746;29;20134;-81
2023/03/27 00:15:14;;;;;;;7.28;1.30;;;;;;;3.09;100.00;101149.59;4942467;29;20071;-80
2023/03/27 00:17:40;;;;;;;9.55;1.65;;;;;;;3.12;100.00;101154.88;4942667;29;20074;-79
2023/03/27 00:20:06;;;;;;;11.52;1.40;;;;;;;3.05;100.00;101164.22;4926828;29;20035;-80
2023/03/27 00:22:32;;;;;;;20.50;1.77;;;;;;;2.69;100.00;101145.91;4939391;29;20031;-79
2023/03/27 00:24:57;;;;;;;14.00;2.10;;;;;;;2.87;100.00;101167.69;4907663;29;20066;-79
2023/03/27 00:27:23;;;;;;;19.30;2.30;;;;;;;3.01;100.00;101168.00;4923267;29;20471;-79
2023/03/27 00:29:49;;;;;;;10.32;1.65;;;;;;;2.88;100.00;101174.88;4939891;29;20035;-80
2023/03/27 00:32:14;;;;;;;9.05;1.80;;;;;;;3.05;100.00;101182.25;4925102;29;20513;-80
2023/03/27 00:34:40;;;;;;;11.38;1.88;;;;;;;2.69;100.00;101191.88;4905985;29;20400;-80
2023/03/27 00:37:06;;;;;;;12.75;1.35;;;;;;;2.74;100.00;101195.25;4920735;29;20521;-81
2023/03/27 00:39:31;;;;;;;10.43;1.48;;;;;;;2.79;100.00;101180.66;4937628;29;20089;-82
2023/03/27 00:41:57;;;;;;;14.05;1.40;;;;;;;2.83;100.00;101201.22;4923344;29;20023;-80
2023/03/27 00:44:29;;;;;;;13.25;1.50;;;;;;;2.79;100.00;101199.56;4921225;29;20476;-81
2023/03/27 00:46:56;;;;;;;16.27;2.00;;;;;;;2.70;100.00;101190.03;4918220;29;20038;-80
2023/03/27 00:49:25;;;;;;;15.05;2.10;;;;;;;2.78;100.00;101196.00;4907676;29;20069;-81
2023/03/27 00:51:51;;;;;;;12.77;1.50;;;;;;;2.96;100.00;101199.75;4922589;29;20070;-81
2023/03/27 00:54:25;;;;;;;15.15;1.63;;;;;;;2.68;100.00;101181.97;4924670;29;20130;-81
2023/03/27 00:56:58;;;;;;;17.90;1.88;;;;;;;2.74;100.00;101210.59;4944890;29;20494;-82
2023/03/27 00:59:31;;;;;;;16.23;1.63;;;;;;;2.71;100.00;101195.38;4924945;29;20038;-79
2023/03/27 01:01:57;;;;;;;8.60;1.63;;;;;;;2.87;100.00;101219.06;4916706;29;20507;-81
2023/03/27 01:04:23;;;;;;;19.58;1.88;;;;;;;2.73;100.00;101203.44;4941712;29;20037;-79
2023/03/27 01:06:52;;;;;;;15.15;1.88;;;;;;;2.76;100.00;101217.69;4942528;29;20475;-80
2023/03/27 01:09:18;;;;;;;11.77;1.73;;;;;;;2.75;100.00;101215.94;4959567;29;20063;-80
2023/03/27 01:12:19;;;;;;;18.45;2.08;;;;;;;2.92;100.00;101223.34;4942482;29;20035;-81
2023/03/27 01:14:53;;;;;;;10.15;1.50;;;;;;;2.84;100.00;101225.50;4907120;29;20093;-79
2023/03/27 01:17:33;;;;;;;13.88;1.33;;;;;;;2.76;100.00;101233.03;4926402;29;20045;-79
2023/03/27 01:20:21;;;;;;;16.48;2.08;;;;;;;2.65;100.00;101233.47;4926721;29;20379;-79
2023/03/27 01:23:02;;;;;;;14.55;1.60;;;;;;;2.75;100.00;101229.47;4939247;29;20096;-79
2023/03/27 01:25:39;;;;;;;14.50;1.80;;;;;;;2.78;100.00;101244.66;4940742;28;20114;-79
2023/03/27 01:28:11;;;;;;;23.88;1.85;;;;;;;2.47;100.00;101235.06;4958636;29;20114;-80
2023/03/27 01:30:56;;;;;;;17.20;1.92;;;;;;;2.52;100.00;101241.19;4922709;29;20041;-80
2023/03/27 01:33:49;;;;;;;10.65;2.13;;;;;;;2.56;100.00;101241.97;4922280;29;20118;-80
2023/03/27 01:36:45;;;;;;;7.90;1.88;;;;;;;2.62;100.00;101241.69;4923604;29;20516;-80
2023/03/27 01:39:13;;;;;;;16.98;1.63;;;;;;;2.74;100.00;101254.72;4940250;29;20030;-81
2023/03/27 01:42:03;;;;;;;23.77;2.15;;;;;;;2.72;100.00;101240.41;4912730;29;20430;-81
2023/03/27 01:44:30;;;;;;;15.63;2.38;;;;;;;2.64;100.00;101261.47;4936388;29;20094;-80
2023/03/27 01:47:08;;;;;;;13.02;2.92;;;;;;;2.72;100.00;101258.44;4938596;29;20398;-81
2023/03/27 01:49:40;;;;;;;15.13;2.03;;;;;;;2.88;100.00;101258.69;4923896;29;20030;-80
2023/03/27 01:52:19;;;;;;;14.18;2.20;;;;;;;2.66;100.00;101272.22;4930697;29;20032;-80
2023/03/27 01:54:53;;;;;;;14.70;1.83;;;;;;;2.61;100.00;101269.69;4951464;29;20035;-80
2023/03/27 01:57:26;;;;;;;8.57;1.70;;;;;;;2.70;100.00;101280.13;4948037;29;20027;-81
2023/03/27 01:59:56;;;;;;;;;;;;;;;2.78;100.00;101277.13;4919824;29;20428;-81
2023/03/27 02:02:27;;;;;;;12.35;2.20;;;;;;;2.63;100.00;101248.88;4954092;28;20005;-81
2023/03/27 02:05:11;;;;;;;18.25;2.80;;;;;;;2.87;100.00;101281.25;4944930;29;20095;-79
2023/03/27 02:07:42;;;;;;;8.50;1.98;;;;;;;2.99;100.00;101282.63;4938393;29;20035;-79
2023/03/27 02:10:14;;;;;;;13.70;2.08;;;;;;;3.02;100.00;101286.06;4928589;29;20023;-80
2023/03/27 02:12:47;;;;;;;9.93;1.77;;;;;;;2.99;100.00;101288.03;4925899;29;20480;-80
2023/03/27 02:15:19;;;;;;;7.47;1.95;;;;;;;2.94;100.00;101282.78;4943132;29;20153;-79
2023/03/27 02:18:17;;;;;;;25.67;2.50;;;;;;;3.11;100.00;101293.78;4944199;29;20471;-80
2023/03/27 02:20:44;;;;;;;16.40;1.80;;;;;;;3.13;100.00;101294.63;4956024;29;20042;-80
2023/03/27 02:23:10;;;;;;;17.50;2.53;;;;;;;3.18;100.00;101298.97;4903787;29;20046;-80
2023/03/27 02:25:38;;;;;;;15.73;1.80;;;;;;;3.17;100.00;101300.78;4929272;29;20105;-82
2023/03/27 02:28:32;;;;;;;14.68;2.50;;;;;;;3.06;100.00;101311.16;4961684;29;20090;-80
2023/03/27 02:31:26;;;;;;;18.20;1.65;;;;;;;3.13;100.00;101310.88;4928593;29;20078;-80
2023/03/27 02:34:17;;;;;;;8.50;1.63;;;;;;;3.13;100.00;101316.28;4937615;29;20039;-81
2023/03/27 02:37:03;;;;;;;11.88;1.48;;;;;;;3.18;100.00;101305.28;4962386;29;20106;-79
2023/03/27 02:39:48;;;;;;;5.80;1.48;;;;;;;3.24;100.00;101317.66;4947418;29;20031;-80
2023/03/27 02:42:18;;;;;;;5.35;1.27;;;;;;;3.34;100.00;101320.84;4927980;29;20031;-80
2023/03/27 02:44:51;;;;;;;11.13;1.85;;;;;;;3.39;100.00;101319.72;4934603;29;20031;-79
2023/03/27 02:47:41;;;;;;;13.77;1.30;;;;;;;3.38;100.00;101311.66;4944959;29;20042;-80
2023/03/27 02:50:13;;;;;;;17.83;1.80;;;;;;;3.44;100.00;101325.84;4938670;29;20039;-80
2023/03/27 02:52:44;;;;;;;9.40;1.23;;;;;;;3.34;100.00;101324.44;4936702;29;20127;-80
2023/03/27 02:55:36;;;;;;;7.75;1.60;;;;;;;3.51;100.00;101345.41;4932806;29;20041;-80
2023/03/27 02:58:08;;;;;;;13.60;1.70;;;;;;;3.45;100.00;101342.94;4960731;29;20027;-79
2023/03/27 03:00:40;;;;;;;15.05;1.90;;;;;;;3.55;100.00;101346.16;4928054;29;20074;-79
2023/03/27 03:03:36;;;;;;;6.45;1.38;;;;;;;3.48;100.00;101361.78;4926517;29;20043;-80
2023/03/27 03:06:06;;;;;;;3.80;0.80;;;;;;;3.35;100.00;101366.81;4947190;29;20059;-81
2023/03/27 03:08:37;;;;;;;14.35;1.58;;;;;;;3.34;100.00;101369.56;4936845;29;20031;-81
2023/03/27 03:11:09;;;;;;;5.75;1.35;;;;;;;3.11;100.00;101363.25;4923094;29;20055;-80
2023/03/27 03:13:35;;;;;;;12.38;1.38;;;;;;;3.09;100.00;101370.56;4922706;29;20023;-80
2023/03/27 03:16:00;;;;;;;9.98;1.10;;;;;;;3.00;100.00;101370.91;4939192;29;20446;-80
2023/03/27 03:18:26;;;;;;;15.05;1.30;;;;;;;2.88;100.00;101356.06;4937017;29;20031;-81
2023/03/27 03:20:52;;;;;;;10.63;2.00;;;;;;;2.90;100.00;101351.47;4929994;29;20103;-79
2023/03/27 03:23:20;;;;;;;10.52;1.40;;;;;;;2.87;100.00;101354.28;4941765;29;20130;-79
2023/03/27 03:25:49;;;;;;;7.68;1.60;;;;;;;2.77;100.00;101359.16;4935890;28;20051;-80
2023/03/27 03:28:17;;;;;;;16.65;1.73;;;;;;;2.86;100.00;101376.88;4941682;29;20114;-83
2023/03/27 03:30:46;;;;;;;7.15;2.15;;;;;;;2.79;100.00;101384.34;4929498;28;20042;-81
2023/03/27 03:33:13;;;;;;;16.02;2.40;;;;;;;2.79;100.00;101378.03;4955804;29;20035;-81
2023/03/27 03:35:39;;;;;;;9.20;1.90;;;;;;;2.85;100.00;101373.25;4939582;29;20131;-80
2023/03/27 03:38:05;;;;;;;9.60;1.92;;;;;;;2.71;100.00;101365.69;4958457;29;20032;-80
2023/03/27 03:40:31;;;;;;;14.30;2.00;;;;;;;2.63;100.00;101370.50;4921520;29;20039;-83
2023/03/27 03:42:57;;;;;;;14.00;2.20;;;;;;;2.67;100.00;101391.09;4904778;29;20147;-80
2023/03/27 03:45:23;;;;;;;12.57;2.13;;;;;;;2.79;100.00;101397.88;4936183;29;20030;-80
2023/03/27 03:47:48;;;;;;;13.75;1.83;;;;;;;2.70;100.00;101396.38;4923652;29;20047;-80
2023/03/27 03:50:14;;;;;;;9.32;1.90;;;;;;;2.69;100.00;101400.03;4911870;29;20031;-80
2023/03/27 03:52:40;;;;;;;12.85;2.70;;;;;;;2.57;100.00;101392.34;4915955;29;20042;-80
2023/03/27 03:55:08;;;;;;;12.18;2.58;;;;;;;2.60;100.00;101410.31;4938490;29;20042;-81
2023/03/27 03:57:35;;;;;;;7.40;1.73;;;;;;;2.45;100.00;101415.31;4911125;29;20035;-80
2023/03/27 04:00:10;;;;;;;9.52;2.03;;;;;;;2.47;100.00;101413.44;4919919;29;20483;-80
2023/03/27 04:02:40;;;;;;;7.90;2.55;;;;;;;2.18;100.00;101390.16;4926883;29;20038;-80
2023/03/27 04:05:06;;;;;;;13.50;2.63;;;;;;;2.36;100.00;101426.44;4941964;29;20065;-79
2023/03/27 04:07:31;;;;;;;15.18;2.50;;;;;;;2.31;100.00;101405.03;4905172;29;20123;-79
2023/03/27 04:10:00;;;;;;;11.82;2.10;;;;;;;2.36;100.00;101416.56;4916414;29;20110;-83
2023/03/27 04:12:26;;;;;;;17.27;2.92;;;;;;;2.41;100.00;101413.69;4941235;29;20451;-81
2023/03/27 04:14:53;;;;;;;19.67;4.70;;;;;;;2.41;100.00;101420.88;4910524;29;20036;-81
2023/03/27 04:17:19;;;;;;;11.00;3.15;;;;;;;2.37;100.00;101442.63;4920239;29;20031;-82
2023/03/27 04:19:45;;;;;;;19.05;3.45;;;;;;;2.42;100.00;101442.44;4920444;29;20123;-81
2023/03/27 04:22:17;;;;;;;18.00;3.65;;;;;;;2.37;100.00;101442.63;4934170;29;20491;-81
2023/03/27 04:24:49;;;;;;;25.85;3.88;;;;;;;2.47;100.00;101453.97;4927777;29;20107;-81
2023/03/27 04:27:16;;;;;;;26.80;4.28;;;;;;;2.44;100.00;101456.78;4933630;29;20027;-83
2023/03/27 04:29:42;;;;;;;16.73;3.50;;;;;;;2.60;100.00;101462.53;4923656;29;20078;-81
2023/03/27 04:32:08;;;;;;;21.77;4.53;;;;;;;2.52;100.00;101460.09;4916383;29;20036;-80
2023/03/27 04:34:37;;;;;;;16.83;3.45;;;;;;;2.49;100.00;101464.72;4937798;29;20035;-83
2023/03/27 04:37:03;;;;;;;13.52;3.28;;;;;;;2.46;100.00;101454.03;4940480;29;20086;-81
2023/03/27 04:39:28;;;;;;;19.90;4.13;;;;;;;2.46;100.00;101467.53;4920295;29;20040;-80
2023/03/27 04:41:53;;;;;;;17.15;3.53;;;;;;;2.52;100.00;101486.25;4905185;29;20032;-82
2023/03/27 04:44:20;;;;;;;24.70;3.92;;;;;;;2.47;100.00;101472.03;4949842;29;20537;-80
2023/03/27 04:46:49;;;;;;;21.20;4.15;;;;;;;2.62;100.00;101494.91;4922580;29;20070;-80
2023/03/27 04:49:17;;;;;;;12.45;4.28;;;;;;;2.38;100.00;101466.00;4923080;29;20511;-80
2023/03/27 04:51:44;;;;;;;23.92;4.40;;;;;;;2.49;100.00;101489.97;4940309;29;20517;-80
2023/03/27 04:54:10;;;;;;;13.63;3.92;;;;;;;2.55;100.00;101494.25;4941181;29;20032;-79
2023/03/27 04:56:35;;;;;;;26.52;4.30;;;;;;;2.39;100.00;101493.91;4908879;29;20039;-80
2023/03/27 04:59:05;;;;;;;19.30;4.18;;;;;;;2.31;100.00;101477.97;4927120;29;20557;-81
2023/03/27 05:01:32;;;;;;;17.00;3.85;;;;;;;2.22;100.00;101480.97;4922412;29;20491;-80
2023/03/27 05:04:01;;;;;;;36.55;3.83;;;;;;;2.29;100.00;101501.44;4940568;29;20042;-81
2023/03/27 05:06:31;;;;;;;20.35;4.22;;;;;;;2.42;100.00;101506.44;4911164;29;20392;-81
2023/03/27 05:09:03;;;;;;;12.70;3.40;;;;;;;2.15;100.00;101504.63;4935660;29;20521;-81
2023/03/27 05:11:28;;;;;;;20.80;3.53;;;;;;;2.21;100.00;101511.63;4920436;29;20085;-79
2023/03/27 05:13:54;;;;;;;12.73;4.68;;;;;;;2.35;100.00;101519.28;4937004;29;20031;-79
2023/03/27 05:24:05;;;;;;;21.63;5.60;;;;;;;2.26;100.00;101535.78;5332292;23;20031;-87
2023/03/27 05:26:31;;;;;;;24.80;5.15;;;;;;;2.33;100.00;101548.19;4927877;29;20498;-86
2023/03/27 05:29:00;;;;;;;19.30;4.03;;;;;;;2.25;100.00;101534.91;4945816;29;20066;-84
2023/03/27 06:23:13;;;;;;;15.68;3.75;;;;;;;2.99;100.00;101604.50;749999;23;20297;-81
2023/03/27 06:25:39;;;;;;;15.27;3.47;;;;;;;2.98;100.00;101609.00;4916436;29;20472;-87
2023/03/27 06:28:08;;;;;;;20.23;4.20;;;;;;;3.16;100.00;101620.13;4914549;29;20522;-89
2023/03/27 06:30:36;;;;;;;18.05;4.25;;;;;;;3.30;100.00;101618.66;4902752;29;20118;-89
2023/03/27 06:33:02;;;;;;;16.73;3.40;;;;;;;3.47;100.00;101626.16;4922894;29;20119;-88
2023/03/27 06:35:30;;;;;;;19.08;4.80;;;;;;;3.64;100.00;101627.34;4931169;29;20475;-84
2023/03/27 06:37:58;;;;;;;11.10;3.67;;;;;;;3.90;100.00;101639.03;4914714;29;20024;-87
2023/03/27 06:40:26;;;;;;;14.27;3.35;;;;;;;3.88;100.00;101635.50;4890812;29;20123;-89
2023/03/27 06:42:59;;;;;;;11.00;2.80;;;;;;;3.90;100.00;101633.59;4906813;29;20400;-88
2023/03/27 06:45:41;;;;;;;;;;;;;;;4.24;100.00;101644.88;4913752;29;20446;-87
2023/03/27 06:48:07;;;;;;;16.00;3.78;;;;;;;4.45;100.00;101639.56;4931801;29;19922;-85
2023/03/27 06:50:34;;;;;;;14.40;3.50;;;;;;;4.39;100.00;101634.38;4927644;29;20036;-83
2023/03/27 06:52:59;;;;;;;15.98;3.83;;;;;;;4.06;100.00;101642.91;4913886;29;20035;-86
2023/03/27 06:55:27;;;;;;;14.57;3.35;;;;;;;3.96;100.00;101642.38;4916019;29;20488;-85
2023/03/27 06:57:55;;;;;;;16.35;2.92;;;;;;;3.83;100.00;101628.41;4926542;29;20067;-84
2023/03/27 07:00:25;;;;;;;16.35;2.92;;;;;;;3.84;100.00;101638.31;4916425;29;20031;-84
2023/03/27 07:02:56;;;;;;;14.90;2.85;;;;;;;3.90;100.00;101658.00;4919822;29;20510;-86
2023/03/27 07:05:22;;;;;;;11.50;2.50;;;;;;;3.91;100.00;101671.47;4913592;29;20035;-84
2023/03/27 07:07:48;;;;;;;15.82;2.13;;;;;;;3.72;100.00;101665.84;4908279;29;20100;-86
2023/03/27 07:10:14;;;;;;;12.30;2.33;;;;;;;3.76;100.00;101672.94;4898247;29;20037;-83
2023/03/27 07:12:47;;;;;;;10.10;1.98;;;;;;;3.65;100.00;101653.50;4906030;29;20069;-81
2023/03/27 07:15:13;;;;;;;7.05;1.70;;;;;;;3.84;100.00;101687.09;4892233;29;20117;-83
2023/03/27 07:17:42;;;;;;;9.50;1.70;;;;;;;3.80;100.00;101687.25;4889684;29;20088;-86
2023/03/27 07:20:12;;;;;;;12.32;2.00;;;;;;;4.18;100.00;101696.66;4900608;29;20063;-86
2023/03/27 07:22:41;;;;;;;13.70;1.73;;;;;;;4.29;100.00;101689.91;4889096;29;20068;-87
2023/03/27 07:25:08;;;;;;;7.10;1.55;;;;;;;5.01;100.00;101700.53;4901321;29;20108;-87
2023/03/27 07:27:34;;;;;;;8.13;1.20;;;;;;;4.40;100.00;101693.94;4904245;29;20012;-86
2023/03/27 07:30:01;;;;;;;13.57;1.75;;;;;;;4.92;100.00;101712.66;4917031;29;20055;-86
2023/03/27 07:32:28;;;;;;;9.27;1.90;;;;;;;4.91;100.00;101707.28;4906540;29;20044;-86
2023/03/27 07:34:55;;;;;;;19.95;2.22;;;;;;;4.86;100.00;101680.34;4940081;29;20048;-85
2023/03/27 07:37:22;;;;;;;12.30;1.92;;;;;;;5.28;100.00;101708.41;4905643;29;20021;-85
2023/03/27 07:39:47;;;;;;;8.65;1.83;;;;;;;5.12;100.00;101705.50;4912354;29;20100;-86
2023/03/27 07:42:13;;;;;;;12.80;1.88;;;;;;;5.18;100.00;101718.78;4908060;29;20031;-86
2023/03/27 07:44:38;;;;;;;6.80;1.33;;;;;;;5.25;100.00;101697.72;4908474;29;20044;-87
2023/03/27 07:47:04;;;;;;;8.05;1.73;;;;;;;5.74;100.00;101722.72;4904593;29;20032;-86
2023/03/27 07:49:30;;;;;;;5.97;1.98;;;;;;;5.60;100.00;101682.56;4905099;29;20036;-86
2023/03/27 07:51:56;;;;;;;8.25;2.17;;;;;;;6.01;100.00;101720.59;4906304;29;20036;-86
2023/03/27 07:56:57;;;;;;;5.05;1.50;;;;;;;5.90;100.00;101731.03;5261566;23;20051;-86
2023/03/27 08:07:08;;;;;;;17.17;1.50;;;;;;;6.12;100.00;101730.13;4922394;29;20420;-85
2023/03/27 08:09:34;;;;;;;9.35;1.73;;;;;;;6.30;100.00;101733.81;4875519;29;20036;-86
2023/03/27 08:12:00;;;;;;;13.30;1.95;;;;;;;6.68;100.00;101731.94;4886572;29;20051;-83
2023/03/27 08:14:25;;;;;;;23.75;2.30;;;;;;;7.26;100.00;101739.03;4861288;29;20036;-85
2023/03/27 08:16:51;;;;;;;7.53;1.77;;;;;;;6.90;100.00;101730.91;4903783;29;20043;-84
2023/03/27 08:19:17;;;;;;;10.15;1.25;;;;;;;6.74;100.00;101728.03;4890318;29;20048;-84
2023/03/27 08:21:43;;;;;;;14.13;2.80;;;;;;;6.79;100.00;101743.19;4905682;29;20044;-85
2023/03/27 08:24:08;;;;;;;20.60;1.80;;;;;;;6.70;100.00;101740.91;4883871;29;20047;-87
2023/03/27 08:26:35;;;;;;;8.15;1.38;;;;;;;6.75;100.00;101738.84;4892098;29;20040;-86
2023/03/27 08:29:03;;;;;;;7.75;1.77;;;;;;;7.26;100.00;101735.44;4876602;29;20040;-86
2023/03/27 08:31:30;;;;;;;6.03;1.90;;;;;;;7.70;100.00;101741.31;4878583;29;20040;-86
2023/03/27 08:33:55;;;;;;;13.32;2.00;;;;;;;7.48;100.00;101747.00;4889592;29;20048;-86
2023/03/27 08:36:21;;;;;;;20.98;2.33;;;;;;;7.75;100.00;101756.56;4860792;29;20029;-86
2023/03/27 08:38:47;;;;;;;9.70;2.05;;;;;;;7.48;100.00;101738.84;4872660;29;20041;-85
2023/03/27 08:41:37;;;;;;;17.02;2.35;;;;;;;6.91;100.00;101736.25;4889087;29;20051;-85
2023/03/27 08:44:06;;;;;;;14.98;2.35;;;;;;;7.61;100.00;101749.09;4890544;29;20032;-85
2023/03/27 08:46:53;;;;;;;9.73;1.77;;;;;;;7.73;100.00;101765.69;4897912;29;20028;-84
2023/03/27 08:49:20;;;;;;;5.50;1.70;;;;;;;7.72;100.00;101761.22;4905274;29;20031;-84
2023/03/27 08:51:57;;;;;;;9.18;1.52;;;;;;;6.57;100.00;101780.56;4874502;29;20032;-84
2023/03/27 08:54:28;;;;;;;9.88;1.73;;;;;;;7.14;100.00;101778.69;4906134;29;20106;-84
2023/03/27 08:56:54;;;;;;;13.90;1.85;;;;;;;7.82;100.00;101763.44;4906110;29;20043;-84
2023/03/27 08:59:30;;;;;;;7.25;1.17;;;;;;;7.62;100.00;101781.72;4872885;29;20028;-84
2023/03/27 09:02:14;;;;;;;8.90;1.55;;;;;;;7.47;100.00;101780.66;4894352;29;20045;-83
2023/03/27 09:04:46;;;;;;;11.65;1.55;;;;;;;7.06;100.00;101785.47;4871068;29;20032;-85
2023/03/27 09:07:26;;;;;;;11.88;1.38;;;;;;;7.15;100.00;101790.47;4871898;29;20142;-83
2023/03/27 09:10:30;;;;;;;14.77;1.60;;;;;;;6.94;100.00;101790.56;4881562;29;20028;-83
2023/03/27 09:13:17;;;;;;;16.17;1.75;;;;;;;7.38;100.00;101791.13;4886056;29;20070;-84
2023/03/27 09:15:49;;;;;;;14.85;1.30;;;;;;;7.22;100.00;101794.66;4887377;29;20032;-84
2023/03/27 09:18:34;;;;;;;9.05;1.23;;;;;;;6.59;100.00;101794.97;4887756;29;20043;-84
2023/03/27 09:21:10;;;;;;;7.70;2.15;;;;;;;7.44;100.00;101799.88;4880361;29;20430;-84
2023/03/27 09:23:45;;;;;;;11.70;2.42;;;;;;;7.63;100.00;101791.66;4901955;29;20480;-84
2023/03/27 09:26:19;;;;;;;15.07;1.35;;;;;;;7.11;100.00;101807.91;4904280;29;20040;-86
2023/03/27 09:28:54;;;;;;;17.63;2.20;;;;;;;7.82;100.00;101807.06;4905105;29;20040;-85
2023/03/27 09:31:27;;;;;;;13.88;1.52;;;;;;;8.09;100.00;101805.59;4900154;29;20038;-87
2023/03/27 09:33:56;;;;;;;11.07;1.30;;;;;;;7.41;100.00;101808.25;4908053;29;20040;-89
2023/03/27 09:36:23;;;;;;;5.35;0.75;;;;;;;7.55;100.00;101816.56;4890338;29;20039;-85
2023/03/27 09:38:57;;;;;;;7.03;1.67;;;;;;;8.06;100.00;101799.44;4874645;29;20396;-84
2023/03/27 09:41:32;;;;;;;4.13;0.75;;;;;;;8.74;100.00;101809.41;4904133;29;20059;-83
2023/03/27 09:44:11;;;;;;;11.27;1.00;;;;;;;9.16;100.00;101810.66;4890592;29;20381;-82
2023/03/27 09:46:42;;;;;;;4.97;0.90;;;;;;;9.31;100.00;101823.47;4922022;29;20076;-85
2023/03/27 09:49:19;;;;;;;11.68;1.13;;;;;;;9.19;100.00;101808.63;4889806;29;20032;-87
2023/03/27 09:51:50;;;;;;;10.70;1.20;;;;;;;9.36;100.00;101810.41;4890755;29;20047;-86
2023/03/27 09:54:19;;;;;;;9.27;1.30;;;;;;;8.94;100.00;101808.31;4889277;29;20034;-86
2023/03/27 09:56:49;;;;;;;10.57;1.25;;;;;;;7.76;100.00;101821.91;4892154;29;20024;-87
2023/03/27 09:59:25;;;;;;;9.38;1.05;;;;;;;7.83;100.00;101828.78;4910829;29;20036;-88
2023/03/27 10:01:56;;;;;;;7.20;1.20;;;;;;;8.12;99.13;101820.94;4915085;29;20024;-86
2023/03/27 10:04:23;;;;;;;9.20;0.80;;;;;;;8.12;100.00;101818.19;4906920;29;20033;-84
2023/03/27 10:07:00;;;;;;;5.85;0.88;;;;;;;8.32;100.00;101817.13;4887579;29;20052;-84
2023/03/27 10:09:29;;;;;;;2.55;0.55;;;;;;;8.59;100.00;101827.50;4910222;29;20039;-83
2023/03/27 10:12:03;;;;;;;9.82;0.80;;;;;;;7.68;100.00;101822.28;4889982;29;20545;-82
2023/03/27 10:14:33;;;;;;;9.00;0.52;;;;;;;6.94;100.00;101842.28;4901686;29;20051;-83
2023/03/27 10:17:03;;;;;;;7.25;1.08;;;;;;;7.61;100.00;101830.84;4904539;29;20036;-83
2023/03/27 10:19:37;;;;;;;4.13;0.57;;;;;;;8.18;100.00;101833.34;4889182;29;20399;-83
2023/03/27 10:22:23;;;;;;;6.20;0.80;;;;;;;8.67;100.00;101827.97;4920558;29;20043;-84
2023/03/27 10:24:52;;;;;;;1.17;0.70;;;;;;;9.51;100.00;101846.88;4901916;29;20381;-82
2023/03/27 10:27:28;;;;;;;9.35;0.80;;;;;;;9.66;100.00;101825.94;4859944;29;20407;-83
2023/03/27 10:29:54;;;;;;;4.35;0.60;;;;;;;8.94;100.00;101844.69;4895945;29;20040;-84
2023/03/27 10:32:44;;;;;;;5.38;0.68;;;;;;;7.83;100.00;101847.00;4874939;29;20040;-83
2023/03/27 10:35:38;;;;;;;4.50;0.73;;;;;;;7.66;100.00;101843.28;4907072;29;20028;-82
2023/03/27 10:38:16;;;;;;;3.97;0.70;;;;;;;7.80;100.00;101850.75;4906907;29;20032;-84
2023/03/27 10:40:49;;;;;;;3.90;0.90;;;;;;;8.78;100.00;101851.97;4891524;29;20047;-83
2023/03/27 10:43:39;;;;;;;;;;;;;;;8.92;100.00;101856.63;4908465;29;20032;-83
2023/03/27 10:46:09;;;;;;;3.08;0.80;;;;;;;9.55;100.00;101856.66;4891678;29;19923;-84
2023/03/27 10:48:55;;;;;;;11.40;1.10;;;;;;;8.62;100.00;101871.94;4924728;29;20084;-83
2023/03/27 10:51:32;;;;;;;10.45;0.98;;;;;;;8.24;100.00;101858.44;4900758;29;20504;-83
2023/03/27 10:54:08;;;;;;;10.35;1.02;;;;;;;7.82;100.00;101865.22;4905089;29;20047;-83
2023/03/27 10:56:42;;;;;;;4.57;0.80;;;;;;;7.95;100.00;101853.66;4923195;29;20123;-83
2023/03/27 10:59:18;;;;;;;3.92;0.80;;;;;;;8.11;100.00;101868.25;4907040;29;20040;-84
2023/03/27 11:01:51;;;;;;;11.32;1.42;;;;;;;8.73;100.00;101859.53;4891671;29;20039;-82
2023/03/27 11:04:24;;;;;;;;;;;;;;;9.27;100.00;101865.56;4924854;29;20040;-83
2023/03/27 11:06:56;;;;;;;4.22;0.80;;;;;;;8.72;100.00;101863.22;4891537;29;19919;-82
2023/03/27 11:09:44;;;;;;;8.83;1.00;;;;;;;8.40;100.00;101868.56;4891900;29;20024;-83
2023/03/27 11:12:13;;;;;;;9.77;0.60;;;;;;;8.83;90.21;101875.31;4890959;29;20032;-83
2023/03/27 11:14:55;;;;;;;11.27;1.02;;;;;;;9.63;78.59;101867.16;4907409;29;20488;-83
2023/03/27 11:17:28;;;;;;;10.65;1.25;;;;;;;9.69;80.47;101858.59;4891565;29;20059;-83
2023/03/27 11:20:05;;;;;;;;;;;;;;;8.68;100.00;101878.03;4924441;29;20029;-83
2023/03/27 11:22:31;;;;;;;5.32;0.60;;;;;;;8.06;100.00;101887.56;4892000;29;19915;-83
2023/03/27 11:25:36;;;;;;;2.25;0.63;;;;;;;7.51;100.00;101896.72;4906118;29;20407;-82
2023/03/27 11:28:30;;;;;;;6.57;1.02;;;;;;;8.38;100.00;101905.94;4891207;29;20024;-84
2023/03/27 11:31:04;;;;;;;;;;;;;;;8.82;100.00;101908.16;4890754;29;20490;-84
2023/03/27 11:33:33;;;;;;;3.47;0.55;;;;;;;8.86;100.00;101909.78;4888680;29;19911;-84
2023/03/27 11:36:36;;;;;;;4.70;0.70;;;;;;;8.40;100.00;101923.16;4898574;29;20043;-83
2023/03/27 11:39:24;;;;;;;2.90;0.70;;;;;;;8.57;100.00;101925.00;4909165;29;20111;-83
2023/03/27 11:41:59;;;;;;;9.27;1.20;;;;;;;8.03;100.00;101919.59;4891190;29;20499;-84
2023/03/27 11:44:29;;;;;;;6.95;0.82;;;;;;;7.14;100.00;101943.94;4890884;29;20024;-83
2023/03/27 11:47:09;;;;;;;6.90;1.20;;;;;;;7.14;100.00;101925.75;4875704;29;20037;-83
2023/03/27 11:49:50;;;;;;;9.93;1.65;;;;;;;7.37;100.00;101929.22;4872941;29;20107;-83
2023/03/27 11:52:29;;;;;;;3.63;0.85;;;;;;;7.86;100.00;101926.78;4881511;29;20047;-83
2023/03/27 11:55:07;;;;;;;10.48;1.23;;;;;;;8.16;100.00;101934.34;4872747;29;20032;-84
2023/03/27 11:58:16;;;;;;;2.72;0.90;;;;;;;8.58;100.00;101924.91;4887473;29;20091;-84
2023/03/27 12:00:41;;;;;;;7.95;0.98;;;;;;;8.56;100.00;101926.84;4902338;29;20091;-84
2023/03/27 12:03:24;;;;;;;4.35;0.50;;;;;;;8.22;97.49;101930.44;4872731;29;20457;-84
2023/03/27 12:06:13;;;;;;;7.13;0.90;;;;;;;8.53;100.00;101920.69;4871973;29;20059;-84
2023/03/27 12:08:49;;;;;;;12.18;1.13;;;;;;;8.59;94.74;101932.16;4874331;29;20324;-83
2023/03/27 12:11:17;;;;;;;4.35;0.75;;;;;;;8.38;91.57;101934.13;4903916;29;20040;-83
2023/03/27 12:13:49;;;;;;;5.32;0.60;;;;;;;8.48;84.51;101936.38;4906628;29;20513;-83
2023/03/27 12:16:23;;;;;;;5.95;0.80;;;;;;;8.80;84.76;101934.69;4890436;29;20032;-84
2023/03/27 12:18:52;;;;;;;10.48;0.90;;;;;;;8.90;78.57;101927.75;4905862;29;20069;-83
2023/03/27 12:21:28;;;;;;;5.93;0.60;;;;;;;8.81;84.69;101926.41;4890579;29;20098;-84
2023/03/27 12:24:03;;;;;;;4.43;0.80;;;;;;;9.08;81.03;101920.38;4890947;29;20032;-83
2023/03/27 12:27:05;;;;;;;9.43;1.30;;;;;;;9.17;84.99;101933.53;4921782;29;20028;-83
2023/03/27 12:29:46;;;;;;;14.70;1.33;;;;;;;9.23;90.77;101931.41;4890404;29;20035;-83
2023/03/27 12:32:33;;;;;;;9.93;1.08;;;;;;;8.67;92.16;101925.38;4890592;29;20032;-83
2023/03/27 12:35:15;;;;;;;12.88;1.05;;;;;;;8.25;100.00;101944.81;4889029;29;20040;-83
2023/03/27 12:37:47;;;;;;;4.55;1.13;;;;;;;7.64;100.00;101948.78;4905078;29;20063;-83
2023/03/27 12:40:30;;;;;;;4.80;0.85;;;;;;;6.73;100.00;101953.06;4890265;29;20104;-82
2023/03/27 12:43:04;;;;;;;5.82;0.98;;;;;;;6.38;100.00;101944.66;4889936;29;20036;-83
2023/03/27 12:45:30;;;;;;;7.72;0.88;;;;;;;6.77;100.00;101940.19;4905914;29;20043;-83
2023/03/27 12:48:16;;;;;;;7.40;1.17;;;;;;;7.59;100.00;101929.06;4904797;29;20484;-83
2023/03/27 12:50:53;;;;;;;8.18;2.47;;;;;;;8.22;100.00;101925.00;4891003;29;20043;-82
2023/03/27 12:53:39;;;;;;;6.07;1.10;;;;;;;7.89;100.00;101929.34;4906679;29;20036;-83
2023/03/27 12:56:18;;;;;;;15.38;2.42;;;;;;;8.40;100.00;101928.59;4920560;29;20063;-84